Nearby METAR Reports

EGQS - RAF Lossiemouth, UK
Distance from station: WNW 12mi, 19km
Updated: 25/07/2024 04:50
Few Clouds
Few Clouds
 Wind from SSW
Wind: SSW 7 mph , 11 km/h
Temperature: 14°C
Dew Point: 11°C
Humidity: 82%
Barometer: 1003 hPa
Clouds: Few Clouds
Visibility: 6 miles , 10 km
Cloud details: Few Clouds 762 m
2024/07/25 03:50 EGQS 250350Z 20006KT 9999 FEW025 14/11 Q1003 RMK BLU
EGQK - RAF Kinloss, UK
Distance from station: WSW 22mi, 36km
Updated: 25/07/2024 05:20
Clear
Clear
 Wind from SSW
Wind: SSW 5 mph , 7 km/h
Temperature: 14°C
Dew Point: 12°C
Humidity: 88%
Barometer: 1003 hPa
Clouds: Clear
Visibility: 6 miles , 10 km
2024/07/25 04:20 EGQK 250420Z AUTO 21004KT 9999 NCD 14/12 Q1003
 
EGPE - Inverness/Dalcross, UK
Distance from station: WSW 39mi, 63km
Updated: 25/07/2024 05:20
Few Clouds
Few Clouds
 Wind from SW
Wind: SW 6 mph , 9 km/h
Temperature: 14°C
Dew Point: 12°C
Humidity: 88%
Barometer: 1003 hPa
Clouds: Few Clouds
Visibility: 6 miles , 10 km
Cloud details: Few Clouds 518 m
2024/07/25 04:20 EGPE 250420Z 22005KT 9999 FEW017 14/12 Q1003
EGPD - Aberdeen/Dyce, UK
Distance from station: SE 44mi, 71km
Updated: 25/07/2024 05:20
Overcast
Overcast
 Wind from SSE
Wind: SSE 8 mph , 13 km/h
Temperature: 15°C
Dew Point: 14°C
Humidity: 94%
Barometer: 1005 hPa
Clouds: Overcast
Visibility: 6 miles , 10 km
Cloud details: Mostly cloudy 213 m
Overcast 396 m
2024/07/25 04:20 EGPD 250420Z AUTO 15007KT 9999 BKN007 OVC013 15/14 Q1005